Belorechensk, Russia
Current Conditions -  °F | °C
As of 7:00 AM on Monday 20 Oct 2014 (Local Time) from URKK Reporting Station
Broken Clouds Broken Clouds  
Wind Chill: 30°   Ceiling: 1800
Heat Index: 34°   Visibility: 6mi
Dew Point: 30°   Wind: 4mph
Humidity: 87%   Direction: 20°NNE
Pressure: 30.27"   Gusts: NA
Location:  44.77°N, 39.87°E
Report Text: URKK 200400Z 02002MPS 9999 BKN018 01/M01 Q1025 TEMPO 0500 FZFGSCT002 RMK QFE765 SC070
Loading
Personal Weather Stations






























Interactive Weather Map
Tropical Storm Tracking
New forecast layout! Learn more

10-Day Weather Forecast

Advertisements
Track Severe Weather on mobile